Time;durP1;ratioP1;P1;durP2;ratioP2;P2;SDS_P1;SDS_P2;PMS_P1;PMS_P2;Temp;Humidity;BMP_temperature;BMP_pressure;BME280_temperature;BME280_humidity;BME280_pressure;Samples;Min_cycle;Max_cycle;Signal;HPM_P1;HPM_P2
2022/05/11 00:01:29;;;;;;;3.72;1.30;;;17.30;74.40;;;;;;5053710;28;20516;-75
2022/05/11 00:03:56;;;;;;;4.18;1.20;;;17.30;74.50;;;;;;5052645;28;20078;-75
2022/05/11 00:06:23;;;;;;;6.13;1.25;;;17.30;74.40;;;;;;5036190;28;20053;-75
2022/05/11 00:08:49;;;;;;;4.07;1.45;;;17.30;74.40;;;;;;5053668;28;20033;-75
2022/05/11 00:11:15;;;;;;;2.97;1.33;;;17.20;74.30;;;;;;5053817;28;20037;-75
2022/05/11 00:13:41;;;;;;;3.40;1.20;;;17.20;74.40;;;;;;5052506;28;20078;-75
2022/05/11 00:16:07;;;;;;;6.80;1.05;;;17.20;74.40;;;;;;5052271;28;20469;-76
2022/05/11 00:18:33;;;;;;;9.57;1.60;;;17.20;74.60;;;;;;5035467;28;20036;-75
2022/05/11 00:20:58;;;;;;;5.57;1.30;;;17.20;74.60;;;;;;5052425;28;20025;-75
2022/05/11 00:23:24;;;;;;;4.43;1.30;;;17.20;74.60;;;;;;5035598;28;20036;-75
2022/05/11 00:25:50;;;;;;;3.45;0.90;;;17.20;74.70;;;;;;5052119;28;20427;-75
2022/05/11 00:28:16;;;;;;;5.78;1.50;;;17.20;74.70;;;;;;5035535;28;20067;-75
2022/05/11 00:30:42;;;;;;;4.95;1.40;;;17.20;74.80;;;;;;5036042;28;20365;-75
2022/05/11 00:33:13;;;;;;;4.60;1.52;;;17.20;74.70;;;;;;5053566;28;20071;-75
2022/05/11 00:35:40;;;;;;;6.70;1.40;;;17.20;74.90;;;;;;5052166;28;20033;-75
2022/05/11 00:38:05;;;;;;;6.20;1.30;;;17.20;75.00;;;;;;5035714;28;20175;-75
2022/05/11 00:40:32;;;;;;;4.47;1.30;;;17.10;75.20;;;;;;5053182;28;20513;-75
2022/05/11 00:42:58;;;;;;;4.53;1.30;;;17.20;75.30;;;;;;5053326;28;20059;-74
2022/05/11 00:45:24;;;;;;;2.70;1.20;;;17.10;75.30;;;;;;5053333;28;20033;-75
2022/05/11 00:47:56;;;;;;;5.40;1.45;;;17.10;75.40;;;;;;5020737;28;20470;-74
2022/05/11 00:50:34;;;;;;;6.25;1.67;;;17.20;75.40;;;;;;5033318;28;20108;-74
2022/05/11 00:53:11;;;;;;;6.90;1.27;;;17.10;75.30;;;;;;5016068;28;20028;-75
2022/05/11 00:55:46;;;;;;;3.50;1.40;;;17.10;75.10;;;;;;5033889;28;20108;-75
2022/05/11 00:58:17;;;;;;;3.17;1.25;;;17.10;75.10;;;;;;5031871;28;20436;-74
2022/05/11 01:00:44;;;;;;;6.80;1.60;;;17.10;75.10;;;;;;5033457;28;20025;-74
2022/05/11 01:03:16;;;;;;;4.15;1.30;;;17.10;75.10;;;;;;5019754;28;20041;-74
2022/05/11 01:05:43;;;;;;;3.90;1.60;;;17.10;75.00;;;;;;5035547;28;20041;-75
2022/05/11 01:08:10;;;;;;;3.78;1.20;;;17.10;75.00;;;;;;5037216;28;20391;-74
2022/05/11 01:10:36;;;;;;;4.57;1.40;;;17.10;75.20;;;;;;5035815;28;20029;-74
2022/05/11 01:13:06;;;;;;;3.97;1.77;;;17.10;75.20;;;;;;5002877;28;20029;-74
2022/05/11 01:15:33;;;;;;;3.30;1.38;;;17.10;75.00;;;;;;5035294;28;20499;-73
2022/05/11 01:18:01;;;;;;;4.18;1.80;;;17.10;75.00;;;;;;5037207;28;20036;-74
2022/05/11 01:20:30;;;;;;;4.45;1.77;;;17.10;75.00;;;;;;5019639;28;20108;-74
2022/05/11 01:23:14;;;;;;;4.45;1.70;;;17.10;74.90;;;;;;5037451;28;20060;-74
2022/05/11 01:25:40;;;;;;;4.57;1.73;;;17.10;74.70;;;;;;5035610;28;20120;-74
2022/05/11 01:28:15;;;;;;;5.45;1.90;;;17.10;74.60;;;;;;5018974;28;20125;-75
2022/05/11 01:30:43;;;;;;;3.97;1.80;;;17.00;74.50;;;;;;5036672;28;20017;-75
2022/05/11 01:33:14;;;;;;;6.95;2.10;;;17.00;74.50;;;;;;5035553;28;20032;-74
2022/05/11 01:35:54;;;;;;;6.60;2.25;;;17.00;74.50;;;;;;5036629;28;20104;-78
2022/05/11 01:38:35;;;;;;;3.97;2.00;;;17.00;74.50;;;;;;5036405;28;20048;-78
2022/05/11 01:41:01;;;;;;;3.33;1.70;;;17.00;74.50;;;;;;5035344;28;20124;-78
2022/05/11 01:43:30;;;;;;;4.88;2.00;;;17.00;74.40;;;;;;5018754;28;20108;-79
2022/05/11 01:45:56;;;;;;;5.78;2.25;;;16.90;74.30;;;;;;5036351;28;20097;-79
2022/05/11 01:48:22;;;;;;;7.63;1.90;;;17.00;74.50;;;;;;5034991;28;20052;-79
2022/05/11 01:50:48;;;;;;;6.63;2.30;;;17.00;75.10;;;;;;5018422;28;20026;-79
2022/05/11 01:53:15;;;;;;;6.15;1.83;;;16.90;74.50;;;;;;5036312;28;20158;-79
2022/05/11 01:55:40;;;;;;;3.55;2.25;;;16.90;75.00;;;;;;5035021;28;20021;-79
2022/05/11 01:58:08;;;;;;;6.53;2.85;;;16.90;74.50;;;;;;5034855;28;20377;-79
2022/05/11 02:00:35;;;;;;;5.55;2.75;;;16.90;74.40;;;;;;5036103;28;20022;-78
2022/05/11 02:03:00;;;;;;;5.25;2.33;;;16.90;74.40;;;;;;5036025;28;20026;-78
2022/05/11 02:08:10;;;;;;;5.60;2.40;;;16.90;74.40;;;;;;5021488;28;20044;-79
2022/05/11 02:10:36;;;;;;;5.45;2.45;;;16.90;74.40;;;;;;5018193;28;20034;-78
2022/05/11 02:13:02;;;;;;;5.32;2.38;;;16.80;74.30;;;;;;5017993;28;20477;-79
2022/05/11 02:15:28;;;;;;;5.20;1.95;;;16.80;74.30;;;;;;5035049;28;20040;-81
2022/05/11 02:17:54;;;;;;;8.75;2.40;;;16.80;74.30;;;;;;5036027;28;20026;-75
2022/05/11 02:20:21;;;;;;;6.45;1.95;;;16.80;74.30;;;;;;5034472;28;20055;-76
2022/05/11 02:22:51;;;;;;;5.28;2.08;;;16.80;74.90;;;;;;5036051;28;20030;-76
2022/05/11 02:25:18;;;;;;;5.68;2.22;;;16.80;74.20;;;;;;5034757;28;20397;-75
2022/05/11 02:27:46;;;;;;;6.97;3.17;;;16.80;74.20;;;;;;5034359;28;20049;-75
2022/05/11 02:30:18;;;;;;;4.63;2.03;;;16.80;74.10;;;;;;5035624;28;20041;-76
2022/05/11 02:32:44;;;;;;;4.25;1.95;;;16.70;74.10;;;;;;5034379;28;20496;-75
2022/05/11 02:35:12;;;;;;;5.53;2.13;;;16.80;74.10;;;;;;5001389;28;20029;-76
2022/05/11 02:37:59;;;;;;;6.55;2.15;;;16.80;74.10;;;;;;5018483;28;20458;-75
2022/05/11 02:40:33;;;;;;;5.00;1.85;;;16.70;74.10;;;;;;5020199;28;20049;-75
2022/05/11 02:43:01;;;;;;;6.63;1.90;;;16.70;74.20;;;;;;5035458;28;20022;-76
2022/05/11 02:45:28;;;;;;;7.25;2.00;;;16.80;74.30;;;;;;5018352;28;20109;-80
2022/05/11 02:47:54;;;;;;;5.55;2.50;;;16.70;74.70;;;;;;5018097;28;20108;-80
2022/05/11 02:50:27;;;;;;;6.43;2.33;;;16.80;74.10;;;;;;5017794;28;20087;-80
2022/05/11 02:52:53;;;;;;;5.78;2.35;;;16.70;74.30;;;;;;5034014;28;20487;-80
2022/05/11 02:55:18;;;;;;;5.53;1.65;;;16.70;74.40;;;;;;5013251;28;20183;-80
2022/05/11 02:57:47;;;;;;;7.05;2.25;;;16.80;74.40;;;;;;5054478;28;20029;-81
2022/05/11 03:00:16;;;;;;;4.63;2.20;;;16.70;74.30;;;;;;5054324;28;20037;-81
2022/05/11 03:02:42;;;;;;;6.18;2.30;;;16.70;74.40;;;;;;5054481;28;20025;-80
2022/05/11 03:05:11;;;;;;;5.78;1.95;;;16.70;74.30;;;;;;5020543;28;20033;-80
2022/05/11 03:07:37;;;;;;;5.05;1.92;;;16.70;75.00;;;;;;5036691;28;20033;-80
2022/05/11 03:10:03;;;;;;;7.82;2.13;;;16.70;74.40;;;;;;5053465;28;20473;-80
2022/05/11 03:12:31;;;;;;;5.25;2.33;;;16.70;74.50;;;;;;5036847;28;20029;-80
2022/05/11 03:14:57;;;;;;;5.10;2.28;;;16.70;74.60;;;;;;5054508;28;20029;-80
2022/05/11 03:17:23;;;;;;;7.13;2.95;;;16.70;74.70;;;;;;5048487;28;20041;-80
2022/05/11 03:19:50;;;;;;;6.65;2.92;;;16.60;74.80;;;;;;5068397;28;20455;-80
2022/05/11 03:22:16;;;;;;;4.40;2.30;;;16.60;75.00;;;;;;5052988;28;20365;-80
2022/05/11 03:24:42;;;;;;;4.78;2.10;;;16.60;75.20;;;;;;5035927;28;20116;-79
2022/05/11 03:27:08;;;;;;;7.35;2.90;;;16.60;75.20;;;;;;5036705;28;20068;-79
2022/05/11 03:29:34;;;;;;;5.90;3.05;;;16.60;75.40;;;;;;5053108;28;20037;-80
2022/05/11 03:34:45;;;;;;;6.80;3.08;;;16.60;75.60;;;;;;5050548;28;20399;-79
2022/05/11 03:37:14;;;;;;;5.30;2.60;;;16.70;75.60;;;;;;5054015;28;20033;-80
2022/05/11 03:39:40;;;;;;;10.02;3.20;;;16.70;75.70;;;;;;5053750;28;20049;-80
2022/05/11 03:42:10;;;;;;;8.75;3.33;;;16.60;76.50;;;;;;5036086;28;20040;-79
2022/05/11 03:44:36;;;;;;;6.30;3.00;;;16.60;75.90;;;;;;5053019;28;20035;-80
2022/05/11 03:47:02;;;;;;;4.47;2.78;;;16.60;75.90;;;;;;5036006;28;20392;-80
2022/05/11 03:49:28;;;;;;;8.40;3.53;;;16.60;75.80;;;;;;5053347;28;20063;-79
2022/05/11 03:51:54;;;;;;;8.30;3.60;;;16.60;75.80;;;;;;5053814;28;20025;-79
2022/05/11 03:54:20;;;;;;;8.85;3.00;;;16.60;75.90;;;;;;5036154;28;20029;-80
2022/05/11 03:56:46;;;;;;;7.97;3.20;;;16.60;75.90;;;;;;5053966;28;20037;-79
2022/05/11 03:59:12;;;;;;;5.22;3.10;;;16.50;76.00;;;;;;5053699;28;20029;-80
2022/05/11 04:01:38;;;;;;;6.47;2.47;;;16.60;76.10;;;;;;5052506;28;20025;-80
2022/05/11 04:04:04;;;;;;;7.40;3.15;;;16.60;76.20;;;;;;5047032;28;20527;-79
2022/05/11 04:06:29;;;;;;;8.02;3.22;;;16.60;76.10;;;;;;5053543;28;20387;-79
2022/05/11 04:08:55;;;;;;;4.43;2.47;;;16.60;76.10;;;;;;5052171;28;20368;-81
2022/05/11 04:11:22;;;;;;;5.55;2.55;;;16.60;76.20;;;;;;5036177;28;20090;-78
2022/05/11 04:13:49;;;;;;;7.93;2.50;;;16.60;76.20;;;;;;5036061;28;20029;-79
2022/05/11 04:16:16;;;;;;;5.80;2.53;;;16.60;76.10;;;;;;5035929;28;20028;-79
2022/05/11 04:18:42;;;;;;;7.43;3.10;;;16.60;76.00;;;;;;5035582;28;20029;-79
2022/05/11 04:21:09;;;;;;;6.97;3.00;;;16.60;76.10;;;;;;5053455;28;20025;-78
2022/05/11 04:23:35;;;;;;;7.18;2.92;;;16.60;76.10;;;;;;5035585;28;20437;-80
2022/05/11 04:26:01;;;;;;;5.85;2.60;;;16.60;76.10;;;;;;5053422;28;20466;-78
2022/05/11 04:28:26;;;;;;;8.40;3.10;;;16.60;76.10;;;;;;5035588;28;20037;-80
2022/05/11 04:31:03;;;;;;;5.15;2.10;;;16.60;76.00;;;;;;5053353;28;20048;-80
2022/05/11 04:33:29;;;;;;;4.93;2.35;;;16.60;76.10;;;;;;5052320;28;20507;-82
2022/05/11 04:35:55;;;;;;;6.72;3.05;;;16.70;76.00;;;;;;5053113;28;20032;-78
2022/05/11 04:38:21;;;;;;;5.03;2.50;;;16.70;75.90;;;;;;5053584;28;20104;-80
2022/05/11 04:40:47;;;;;;;5.85;2.33;;;16.70;75.80;;;;;;5052830;28;20041;-81
2022/05/11 04:43:12;;;;;;;8.23;2.40;;;16.70;75.80;;;;;;5051956;28;20446;-82
2022/05/11 04:45:40;;;;;;;7.13;1.90;;;16.70;76.40;;;;;;5051871;28;20511;-81
2022/05/11 04:48:05;;;;;;;4.65;1.85;;;16.70;75.70;;;;;;5053045;28;20032;-80
2022/05/11 04:50:31;;;;;;;4.90;2.03;;;16.70;75.60;;;;;;5033115;28;20476;-81
2022/05/11 04:52:57;;;;;;;6.30;2.40;;;16.70;75.60;;;;;;5017344;28;20037;-82
2022/05/11 04:55:22;;;;;;;5.95;2.58;;;16.70;75.60;;;;;;5033582;28;20029;-82
2022/05/11 04:57:49;;;;;;;7.32;1.95;;;16.70;75.50;;;;;;5035007;28;20040;-81
2022/05/11 05:00:15;;;;;;;5.40;1.70;;;16.70;75.50;;;;;;5035245;28;20060;-81
2022/05/11 05:02:41;;;;;;;5.47;2.05;;;16.70;75.50;;;;;;5053369;28;20079;-81
2022/05/11 05:05:08;;;;;;;5.38;2.17;;;16.70;75.60;;;;;;5051732;28;20033;-81
2022/05/11 05:07:34;;;;;;;6.97;2.60;;;16.80;75.60;;;;;;5043604;28;20025;-80
2022/05/11 05:10:01;;;;;;;5.13;2.13;;;16.80;75.60;;;;;;5051464;28;20499;-81
2022/05/11 05:12:27;;;;;;;9.32;1.98;;;16.80;75.60;;;;;;5027495;28;20503;-81
2022/05/11 05:14:53;;;;;;;3.95;1.80;;;16.80;75.50;;;;;;5051050;28;20151;-79
2022/05/11 05:17:19;;;;;;;4.70;1.80;;;16.80;75.60;;;;;;5051307;28;20480;-81
2022/05/11 05:19:45;;;;;;;4.55;1.85;;;16.80;75.40;;;;;;5052173;28;20037;-81
2022/05/11 05:22:11;;;;;;;5.80;1.60;;;16.80;75.40;;;;;;5046095;28;20029;-84
2022/05/11 05:24:37;;;;;;;3.33;1.63;;;16.90;75.30;;;;;;5017918;28;20033;-83
2022/05/11 05:27:03;;;;;;;4.45;1.90;;;16.90;75.30;;;;;;5025712;28;20035;-82
2022/05/11 05:32:14;;;;;;;5.72;1.77;;;16.90;75.30;;;;;;5037240;28;20083;-79
2022/05/11 05:34:43;;;;;;;6.22;2.00;;;16.90;76.00;;;;;;5018424;28;20075;-81
2022/05/11 05:37:09;;;;;;;4.85;2.00;;;16.90;75.30;;;;;;5035076;28;20358;-80
2022/05/11 05:39:35;;;;;;;4.97;1.92;;;16.80;75.20;;;;;;5033805;28;20041;-79
2022/05/11 05:42:01;;;;;;;4.38;2.03;;;16.90;75.20;;;;;;5052029;28;20075;-79
2022/05/11 05:44:31;;;;;;;4.18;1.83;;;16.90;75.10;;;;;;5034319;28;20056;-78
2022/05/11 05:47:06;;;;;;;8.55;2.30;;;16.90;75.10;;;;;;5036790;28;20439;-77
2022/05/11 05:49:31;;;;;;;7.68;2.13;;;16.90;74.80;;;;;;5054852;28;20029;-79
2022/05/11 05:51:59;;;;;;;6.80;1.67;;;16.90;74.70;;;;;;5055071;28;20078;-78
2022/05/11 05:54:25;;;;;;;4.60;1.45;;;16.90;74.60;;;;;;5054861;28;20431;-77
2022/05/11 05:56:51;;;;;;;4.40;1.63;;;16.90;74.50;;;;;;5056253;28;20079;-77
2022/05/11 05:59:18;;;;;;;4.97;1.38;;;17.00;74.30;;;;;;5056004;28;20052;-76
2022/05/11 06:01:43;;;;;;;3.83;1.20;;;16.90;74.20;;;;;;5055915;28;20481;-81
2022/05/11 06:04:09;;;;;;;6.65;1.70;;;17.00;74.10;;;;;;5055969;28;20021;-78
2022/05/11 06:06:35;;;;;;;4.35;1.52;;;17.10;73.90;;;;;;5054570;28;20059;-81
2022/05/11 06:09:01;;;;;;;3.80;1.95;;;17.10;74.50;;;;;;5037765;28;20033;-78
2022/05/11 06:11:26;;;;;;;4.22;1.55;;;17.10;74.20;;;;;;5054404;28;20102;-82
2022/05/11 06:13:52;;;;;;;8.80;1.92;;;17.10;73.00;;;;;;5037921;28;20032;-78
2022/05/11 06:16:18;;;;;;;6.50;1.70;;;17.10;72.10;;;;;;5037912;28;20041;-76
2022/05/11 06:18:45;;;;;;;4.55;1.80;;;17.00;72.20;;;;;;5037444;28;20032;-76
2022/05/11 06:21:12;;;;;;;4.93;1.85;;;17.00;72.10;;;;;;5037424;28;20017;-76
2022/05/11 06:23:38;;;;;;;5.25;1.67;;;17.00;71.90;;;;;;5053933;28;20120;-74
2022/05/11 06:26:04;;;;;;;5.05;1.58;;;17.00;71.90;;;;;;5055076;28;20096;-74
2022/05/11 06:28:30;;;;;;;5.28;1.40;;;16.90;72.10;;;;;;5037407;28;20111;-74
2022/05/11 06:30:56;;;;;;;4.03;1.38;;;17.00;72.20;;;;;;5053987;28;20503;-75
2022/05/11 06:33:21;;;;;;;6.70;1.75;;;16.90;72.40;;;;;;5037219;28;20124;-75
2022/05/11 06:35:47;;;;;;;7.57;1.52;;;16.90;71.00;;;;;;5037353;28;20021;-75
2022/05/11 06:38:13;;;;;;;4.15;1.35;;;17.00;70.60;;;;;;5037492;28;20029;-76
2022/05/11 06:40:39;;;;;;;8.63;1.65;;;17.00;70.00;;;;;;5054919;28;20045;-74
2022/05/11 06:43:05;;;;;;;5.13;1.38;;;17.00;69.10;;;;;;5053959;28;20025;-77
2022/05/11 06:45:31;;;;;;;5.00;1.40;;;17.10;68.60;;;;;;5037425;28;20025;-75
2022/05/11 06:47:57;;;;;;;7.57;1.30;;;17.10;67.50;;;;;;5054090;28;20028;-76
2022/05/11 06:50:25;;;;;;;4.90;1.13;;;17.10;66.50;;;;;;5055459;28;20025;-74
2022/05/11 06:52:52;;;;;;;6.20;0.95;;;17.10;65.80;;;;;;5054988;28;20491;-73
2022/05/11 07:00:48;;;;;;;4.90;1.23;;;17.20;65.40;;;;;;5054996;28;20507;-74
2022/05/11 07:03:14;;;;;;;3.88;1.17;;;17.20;65.10;;;;;;5037027;28;20021;-78
2022/05/11 07:05:42;;;;;;;5.30;1.10;;;17.20;65.50;;;;;;5036807;28;20025;-78
2022/05/11 07:08:08;;;;;;;4.70;1.20;;;17.10;65.80;;;;;;5053425;28;20068;-78
2022/05/11 07:12:17;;;;;;;5.88;1.52;;;17.10;66.10;;;;;;5053483;28;20025;-75
2022/05/11 07:13:30;;;;;;;9.40;1.33;;;17.10;65.90;;;;;;5054597;28;20037;-74
2022/05/11 07:15:56;;;;;;;5.18;1.30;;;17.10;65.70;;;;;;5052361;28;20469;-75
2022/05/11 07:18:21;;;;;;;5.80;1.23;;;17.20;64.10;;;;;;5049336;28;20043;-75
2022/05/11 07:20:48;;;;;;;6.32;1.00;;;17.30;63.20;;;;;;5016451;28;20033;-74
2022/05/11 07:23:14;;;;;;;6.32;0.77;;;17.40;63.40;;;;;;5001026;28;20036;-75
2022/05/11 07:25:40;;;;;;;6.38;0.95;;;17.50;62.00;;;;;;5016605;28;20036;-74
2022/05/11 07:28:06;;;;;;;8.30;0.60;;;17.50;59.50;;;;;;5016660;28;20033;-75
2022/05/11 07:30:34;;;;;;;5.03;0.93;;;17.50;59.60;;;;;;5016783;28;20037;-74
2022/05/11 07:33:01;;;;;;;4.50;1.02;;;17.50;59.70;;;;;;5033122;28;20060;-75
2022/05/11 07:35:28;;;;;;;4.50;1.10;;;17.60;60.00;;;;;;5033131;28;20378;-74
2022/05/11 07:37:53;;;;;;;5.80;0.90;;;17.60;60.10;;;;;;5017031;28;20033;-74
2022/05/11 07:40:21;;;;;;;2.15;0.43;;;17.70;60.20;;;;;;4999792;28;20076;-75
2022/05/11 07:42:47;;;;;;;6.00;0.90;;;17.70;60.30;;;;;;5033009;28;20056;-74
2022/05/11 07:45:14;;;;;;;4.50;1.00;;;17.90;60.40;;;;;;5017406;28;20049;-74
2022/05/11 07:47:40;;;;;;;4.30;0.98;;;18.00;60.00;;;;;;5034667;28;20083;-75
2022/05/11 07:50:13;;;;;;;4.72;0.70;;;18.00;59.90;;;;;;5016829;28;20037;-74
2022/05/11 07:52:39;;;;;;;5.45;0.65;;;18.10;59.50;;;;;;5034554;28;20099;-73
2022/05/11 07:55:05;;;;;;;4.47;0.60;;;18.10;59.10;;;;;;5016460;28;20053;-74
2022/05/11 08:00:15;;;;;;;3.95;0.50;;;18.10;58.60;;;;;;5019373;28;20572;-73
2022/05/11 08:02:41;;;;;;;2.88;0.47;;;18.10;58.80;;;;;;5016232;28;20441;-75
2022/05/11 08:05:10;;;;;;;4.63;0.85;;;18.10;58.70;;;;;;5016412;28;20025;-74
2022/05/11 08:07:46;;;;;;;7.05;0.88;;;18.10;58.70;;;;;;5033857;28;20021;-75
2022/05/11 08:10:39;;;;;;;6.55;0.70;;;18.10;59.00;;;;;;5033667;28;20022;-74
2022/05/11 08:13:07;;;;;;;7.05;0.90;;;18.00;59.10;;;;;;5032416;28;20037;-76
2022/05/11 08:15:35;;;;;;;5.95;0.70;;;17.90;58.20;;;;;;5000291;28;20385;-75
2022/05/11 08:18:04;;;;;;;6.70;0.60;;;17.90;58.30;;;;;;5032796;28;20108;-74
2022/05/11 08:20:34;;;;;;;6.38;0.40;;;18.00;58.30;;;;;;5033573;28;20036;-74
2022/05/11 08:23:02;;;;;;;5.25;0.63;;;18.00;58.20;;;;;;5016853;28;20087;-74
2022/05/11 08:25:30;;;;;;;3.70;0.55;;;18.00;58.20;;;;;;5034024;28;20465;-74
2022/05/11 08:27:56;;;;;;;5.80;0.60;;;18.00;58.50;;;;;;5049595;28;20477;-73
2022/05/11 08:33:26;;;;;;;5.10;0.60;;;18.10;59.00;;;;;;5053732;28;20094;-76
2022/05/11 08:35:58;;;;;;;3.63;0.50;;;18.10;59.10;;;;;;5037443;28;20029;-75
2022/05/11 08:38:29;;;;;;;3.45;0.45;;;18.10;58.80;;;;;;5051965;28;20017;-76
2022/05/11 08:41:02;;;;;;;6.18;0.60;;;18.20;59.00;;;;;;5036042;28;20045;-76
2022/05/11 08:43:31;;;;;;;5.00;0.55;;;18.30;59.20;;;;;;5053389;28;20453;-76
2022/05/11 08:46:23;;;;;;;3.88;0.70;;;18.30;59.10;;;;;;5053272;28;20499;-75
2022/05/11 08:49:02;;;;;;;6.93;0.98;;;18.30;58.90;;;;;;5035734;28;20075;-74
2022/05/11 08:51:49;;;;;;;6.10;0.80;;;18.20;59.10;;;;;;5051653;28;20051;-74
2022/05/11 08:54:33;;;;;;;6.95;0.85;;;18.30;59.60;;;;;;5052993;28;20059;-75
2022/05/11 08:57:00;;;;;;;3.70;0.80;;;18.30;59.60;;;;;;5051956;28;20459;-78
2022/05/11 08:59:30;;;;;;;5.97;0.80;;;18.40;59.60;;;;;;5051985;28;20031;-76
2022/05/11 09:01:56;;;;;;;5.40;0.52;;;18.40;59.50;;;;;;5053166;28;20469;-74
2022/05/11 09:04:28;;;;;;;6.10;0.75;;;18.40;59.60;;;;;;5052847;28;20096;-75
2022/05/11 09:06:54;;;;;;;3.20;0.57;;;18.40;59.70;;;;;;5051627;28;20418;-74
2022/05/11 09:09:21;;;;;;;6.95;0.80;;;18.40;60.00;;;;;;5035717;28;20025;-76
2022/05/11 09:11:50;;;;;;;4.82;1.17;;;18.40;60.00;;;;;;5035490;28;20033;-73
2022/05/11 09:14:22;;;;;;;4.97;1.52;;;18.50;59.80;;;;;;5052893;28;20036;-76
2022/05/11 09:16:52;;;;;;;6.13;0.70;;;18.60;59.70;;;;;;5052827;28;20167;-77
2022/05/11 09:19:33;;;;;;;7.25;1.50;;;18.50;59.80;;;;;;5035140;28;20036;-80
2022/05/11 09:22:14;;;;;;;7.00;1.00;;;18.60;59.80;;;;;;5037219;28;20021;-78
2022/05/11 09:24:48;;;;;;;4.88;0.70;;;18.70;59.90;;;;;;5055578;28;20021;-76
2022/05/11 09:27:28;;;;;;;8.02;1.73;;;18.70;60.00;;;;;;5038939;28;20087;-75
2022/05/11 09:29:56;;;;;;;10.93;1.52;;;18.80;59.60;;;;;;5056730;28;20033;-74
2022/05/11 09:32:38;;;;;;;4.40;0.77;;;18.80;59.10;;;;;;5056985;28;20021;-77
2022/05/11 09:35:24;;;;;;;5.00;0.77;;;18.80;59.10;;;;;;5056794;28;20025;-74
2022/05/11 09:38:05;;;;;;;4.38;0.80;;;18.90;59.50;;;;;;5056524;28;20427;-74
2022/05/11 09:40:32;;;;;;;8.30;1.40;;;19.00;59.50;;;;;;5056576;28;20484;-75
2022/05/11 09:43:04;;;;;;;7.68;1.20;;;19.00;59.00;;;;;;5056445;28;20025;-78
2022/05/11 09:45:45;;;;;;;6.60;1.10;;;19.10;59.40;;;;;;5038447;28;20069;-74
2022/05/11 09:48:12;;;;;;;5.50;1.00;;;19.20;59.50;;;;;;5056328;28;20017;-78
2022/05/11 09:50:40;;;;;;;5.20;0.88;;;19.20;59.30;;;;;;5055114;28;20036;-81
2022/05/11 09:53:37;;;;;;;6.32;0.80;;;19.30;59.30;;;;;;5055128;28;20472;-79
2022/05/11 09:56:50;;;;;;;4.28;1.08;;;19.40;59.10;;;;;;5031690;28;20033;-80
2022/05/11 09:59:34;;;;;;;4.60;0.90;;;19.40;59.10;;;;;;4936595;29;20055;-80
2022/05/11 10:02:32;;;;;;;9.15;1.20;;;19.50;59.30;;;;;;5054659;28;20024;-78
2022/05/11 10:05:24;;;;;;;8.45;1.30;;;19.60;59.00;;;;;;5031057;28;20036;-80
2022/05/11 10:08:01;;;;;;;5.65;1.13;;;19.60;58.90;;;;;;5055810;28;20024;-76
2022/05/11 10:10:32;;;;;;;6.95;1.35;;;19.60;58.70;;;;;;5055542;28;20090;-75
2022/05/11 10:13:21;;;;;;;5.38;1.05;;;19.70;58.30;;;;;;5054275;28;20017;-75
2022/05/11 10:21:50;;;;;;;8.23;1.48;;;19.90;58.40;;;;;;4994090;28;20039;-75
2022/05/11 10:22:14;;;;;;;6.28;1.25;;;20.10;57.60;;;;;;4994076;28;20022;-75
2022/05/11 10:25:14;;;;;;;6.55;1.13;;;20.20;57.40;;;;;;4994163;28;20476;-76
2022/05/11 10:27:53;;;;;;;4.05;1.23;;;20.50;57.30;;;;;;5053668;28;20025;-75
2022/05/11 10:30:47;;;;;;;7.25;1.42;;;20.70;56.50;;;;;;5036781;28;20040;-75
2022/05/11 10:33:18;;;;;;;7.07;1.65;;;20.90;55.80;;;;;;5053767;28;20125;-75
2022/05/11 10:36:11;;;;;;;6.72;1.23;;;21.20;55.00;;;;;;5055133;28;20071;-75
2022/05/11 10:39:07;;;;;;;5.28;1.02;;;21.50;54.90;;;;;;5054145;28;20028;-78
2022/05/11 10:42:14;;;;;;;4.75;1.20;;;22.00;54.20;;;;;;5037373;28;20041;-75
2022/05/11 10:44:41;;;;;;;5.57;1.15;;;22.40;53.50;;;;;;5037162;28;20025;-76
2022/05/11 10:47:47;;;;;;;4.15;0.77;;;22.90;52.30;;;;;;5053817;28;20021;-76
2022/05/11 10:51:04;;;;;;;5.53;0.75;;;23.50;50.90;;;;;;5021174;28;20140;-78
2022/05/11 10:54:10;;;;;;;4.22;0.70;;;24.10;49.50;;;;;;5037615;28;20028;-75
2022/05/11 10:56:44;;;;;;;5.20;1.02;;;24.80;48.80;;;;;;5039418;28;20385;-77
2022/05/11 10:59:15;;;;;;;3.70;0.52;;;25.40;47.90;;;;;;5054996;28;20481;-79
2022/05/11 11:01:54;;;;;;;4.45;0.82;;;25.90;46.90;;;;;;5055071;28;20029;-80
2022/05/11 11:04:29;;;;;;;6.88;0.80;;;26.30;45.00;;;;;;5037034;28;20053;-78
2022/05/11 11:07:14;;;;;;;3.83;0.70;;;26.40;44.10;;;;;;5055129;28;20392;-77
2022/05/11 11:09:49;;;;;;;5.05;0.70;;;26.70;43.80;;;;;;5054915;28;20017;-79
2022/05/11 11:12:31;;;;;;;3.92;0.73;;;27.10;43.50;;;;;;5053356;28;20025;-76
2022/05/11 11:14:58;;;;;;;2.35;0.60;;;27.50;42.50;;;;;;5053462;28;20021;-78
2022/05/11 11:17:27;;;;;;;3.80;0.68;;;27.80;42.40;;;;;;5036939;28;20029;-80
2022/05/11 11:19:57;;;;;;;5.65;0.80;;;28.20;41.60;;;;;;5054680;28;20025;-81
2022/05/11 11:22:22;;;;;;;5.47;0.80;;;28.30;40.90;;;;;;5054644;28;20523;-78
2022/05/11 11:25:10;;;;;;;6.25;1.00;;;28.50;40.20;;;;;;5055087;28;20037;-82
2022/05/11 11:28:11;;;;;;;3.90;0.57;;;28.60;39.90;;;;;;5053107;28;20392;-84
2022/05/11 11:30:39;;;;;;;4.63;0.80;;;28.70;40.10;;;;;;5025830;28;20063;-83
2022/05/11 11:33:11;;;;;;;5.20;0.85;;;28.90;40.00;;;;;;5036534;28;20021;-84
2022/05/11 11:35:42;;;;;;;5.57;0.80;;;29.10;39.30;;;;;;5053132;28;20078;-82
2022/05/11 11:38:07;;;;;;;6.43;0.85;;;29.20;38.80;;;;;;5036355;28;20408;-83
2022/05/11 11:40:35;;;;;;;3.60;0.63;;;29.20;38.90;;;;;;5069170;28;20045;-84
2022/05/11 11:43:40;;;;;;;4.80;0.60;;;29.40;39.30;;;;;;5069612;28;20029;-84
2022/05/11 11:46:06;;;;;;;4.35;0.60;;;29.80;39.40;;;;;;5054108;28;20521;-77
2022/05/11 11:48:32;;;;;;;3.10;0.60;;;30.00;38.70;;;;;;5054007;28;20021;-80
2022/05/11 11:51:01;;;;;;;5.10;0.88;;;30.20;38.30;;;;;;5036337;28;20461;-80
2022/05/11 11:53:53;;;;;;;2.55;0.60;;;30.40;37.80;;;;;;5054114;28;20040;-85
2022/05/11 11:56:25;;;;;;;2.63;0.60;;;30.50;37.90;;;;;;5052919;28;20033;-81
2022/05/11 11:59:12;;;;;;;4.32;0.80;;;30.70;37.60;;;;;;5053888;28;20056;-79
2022/05/11 12:01:41;;;;;;;8.45;0.93;;;30.80;37.40;;;;;;5054117;28;20025;-81
2022/05/11 12:04:16;;;;;;;4.13;0.60;;;30.80;37.30;;;;;;5035902;28;20503;-81
2022/05/11 12:15:11;;;;;;;7.95;1.00;;;31.20;36.70;;;;;;5054578;28;20091;-81
2022/05/11 12:17:39;;;;;;;6.50;0.75;;;31.20;36.30;;;;;;5035975;28;20032;-81
2022/05/11 12:20:14;;;;;;;6.65;1.00;;;31.50;36.60;;;;;;5036432;28;20033;-82
2022/05/11 12:22:44;;;;;;;6.40;1.00;;;31.80;36.40;;;;;;5035606;28;20013;-83
2022/05/11 12:25:26;;;;;;;4.15;0.80;;;31.80;35.90;;;;;;5053623;28;20361;-81
2022/05/11 12:27:53;;;;;;;4.78;1.05;;;31.80;35.80;;;;;;5052230;28;20124;-83
2022/05/11 12:30:22;;;;;;;4.10;0.60;;;31.70;35.80;;;;;;5036073;28;20079;-79
2022/05/11 12:32:58;;;;;;;3.10;0.60;;;31.70;35.90;;;;;;5052280;28;20075;-83
2022/05/11 12:35:29;;;;;;;3.53;0.77;;;31.80;36.20;;;;;;5053671;28;20534;-79
2022/05/11 12:38:04;;;;;;;7.18;0.98;;;32.00;36.40;;;;;;5036061;28;20029;-79
2022/05/11 12:40:47;;;;;;;7.20;0.98;;;32.20;36.00;;;;;;5035375;28;20127;-76
2022/05/11 12:43:23;;;;;;;6.97;0.98;;;32.50;35.90;;;;;;5053997;28;20028;-79
2022/05/11 12:45:51;;;;;;;5.43;0.88;;;32.80;35.40;;;;;;5053290;28;20021;-77
2022/05/11 12:48:23;;;;;;;6.47;1.33;;;32.90;35.00;;;;;;5051941;28;20052;-77
2022/05/11 12:51:08;;;;;;;4.93;1.10;;;32.80;34.60;;;;;;5053105;28;20057;-80
2022/05/11 12:53:47;;;;;;;3.30;0.82;;;32.70;34.40;;;;;;5035309;28;20029;-78
2022/05/11 12:56:20;;;;;;;4.70;1.20;;;32.70;34.70;;;;;;5037494;28;20491;-77
2022/05/11 12:58:52;;;;;;;7.85;1.67;;;32.70;34.70;;;;;;5056840;28;20028;-77
2022/05/11 13:01:21;;;;;;;5.43;1.10;;;32.60;34.50;;;;;;5057010;28;20016;-75
2022/05/11 13:03:50;;;;;;;7.55;1.00;;;32.60;34.80;;;;;;5039168;28;20052;-77
2022/05/11 13:06:31;;;;;;;5.05;1.05;;;32.80;34.80;;;;;;5038977;28;20032;-77
2022/05/11 13:09:02;;;;;;;5.82;1.35;;;32.90;34.50;;;;;;5057262;28;20024;-75
2022/05/11 13:11:30;;;;;;;5.70;1.02;;;33.10;34.60;;;;;;5039285;28;20028;-75
2022/05/11 13:13:59;;;;;;;4.40;0.80;;;33.10;34.80;;;;;;5039106;28;20465;-77
2022/05/11 13:16:27;;;;;;;5.40;1.08;;;33.10;34.70;;;;;;5055024;28;20500;-77
2022/05/11 13:19:12;;;;;;;5.28;1.30;;;33.00;34.70;;;;;;5055163;28;20067;-76
2022/05/11 13:21:37;;;;;;;4.22;0.88;;;33.00;34.70;;;;;;5056443;28;20029;-76
2022/05/11 13:24:07;;;;;;;3.45;0.77;;;33.00;34.90;;;;;;5056495;28;20035;-75
2022/05/11 13:26:47;;;;;;;6.43;0.80;;;33.10;34.90;;;;;;5056929;28;20043;-75
2022/05/11 13:29:21;;;;;;;3.83;1.00;;;33.10;34.80;;;;;;5056419;28;20495;-76
2022/05/11 13:32:01;;;;;;;5.82;1.00;;;33.10;35.00;;;;;;5056532;28;20053;-76
2022/05/11 13:34:33;;;;;;;5.68;1.08;;;33.10;34.90;;;;;;5037037;28;20041;-75
2022/05/11 13:37:01;;;;;;;6.28;1.10;;;33.10;35.00;;;;;;5052347;28;20397;-76
2022/05/11 13:39:37;;;;;;;3.78;1.17;;;33.30;35.20;;;;;;5055309;28;20116;-76